createdAt,value
2018-04-18T00:01:25.720Z,69.10
2018-04-18T00:03:53.237Z,69.10
2018-04-18T00:06:20.780Z,69.20
2018-04-18T00:08:49.060Z,69.50
2018-04-18T00:11:17.368Z,69.60
2018-04-18T00:13:44.886Z,69.50
2018-04-18T00:16:13.202Z,70.00
2018-04-18T00:18:40.725Z,69.70
2018-04-18T00:21:09.007Z,70.60
2018-04-18T00:23:37.320Z,69.90
2018-04-18T00:26:04.832Z,69.90
2018-04-18T00:28:32.368Z,70.30
2018-04-18T00:30:59.892Z,70.70
2018-04-18T00:33:27.432Z,70.80
2018-04-18T00:35:55.719Z,70.90
2018-04-18T00:38:23.259Z,70.80
2018-04-18T00:40:51.540Z,71.50
2018-04-18T00:43:19.853Z,72.00
2018-04-18T00:45:47.369Z,71.90
2018-04-18T00:48:14.923Z,72.20
2018-04-18T00:50:42.444Z,71.90
2018-04-18T00:53:09.988Z,72.30
2018-04-18T00:55:37.505Z,72.40
2018-04-18T00:58:05.053Z,72.50
2018-04-18T01:00:32.576Z,72.70
2018-04-18T01:03:00.130Z,72.70
2018-04-18T01:05:27.648Z,72.90
2018-04-18T01:07:55.960Z,71.80
2018-04-18T01:10:23.480Z,71.80
2018-04-18T01:12:51.029Z,71.90
2018-04-18T01:15:18.558Z,71.70
2018-04-18T01:17:46.104Z,71.80
2018-04-18T01:20:13.654Z,71.80
2018-04-18T01:22:41.171Z,71.70
2018-04-18T01:25:08.717Z,71.80
2018-04-18T01:27:36.241Z,71.90
2018-04-18T01:30:03.783Z,72.20
2018-04-18T01:32:31.299Z,72.20
2018-04-18T01:34:58.848Z,72.60
2018-04-18T01:37:26.364Z,72.30
2018-04-18T01:39:53.905Z,72.50
2018-04-18T01:42:22.190Z,73.30
2018-04-18T01:44:50.503Z,73.20
2018-04-18T01:47:18.019Z,73.10
2018-04-18T01:49:46.332Z,73.10
2018-04-18T01:52:13.849Z,72.90
2018-04-18T01:54:41.387Z,73.40
2018-04-18T01:57:08.909Z,73.20
2018-04-18T01:59:36.463Z,73.30
2018-04-18T02:02:03.985Z,73.40
2018-04-18T02:04:31.540Z,74.00
2018-04-18T02:06:59.064Z,73.50
2018-04-18T02:09:26.617Z,73.20
2018-04-18T02:11:54.141Z,73.00
2018-04-18T02:14:22.459Z,73.40
2018-04-18T02:16:49.976Z,73.30
2018-04-18T02:19:17.545Z,73.40
2018-04-18T02:21:45.865Z,73.10
2018-04-18T02:24:13.398Z,72.90
2018-04-18T02:26:40.961Z,73.10
2018-04-18T02:29:08.491Z,72.80
2018-04-18T02:31:36.806Z,73.40
2018-04-18T02:34:04.338Z,72.80
2018-04-18T02:36:32.655Z,73.50
2018-04-18T02:39:00.181Z,73.40
2018-04-18T02:41:28.500Z,73.70
2018-04-18T02:43:56.029Z,73.70
2018-04-18T02:46:23.596Z,73.60
2018-04-18T02:48:51.120Z,73.30
2018-04-18T02:51:18.679Z,73.40
2018-04-18T02:53:46.203Z,73.30
2018-04-18T02:56:14.524Z,73.40
2018-04-18T02:58:42.829Z,73.50
2018-04-18T03:01:10.380Z,73.40
2018-04-18T03:03:37.911Z,73.50
2018-04-18T03:06:05.472Z,73.60
2018-04-18T03:08:33.004Z,73.80
2018-04-18T03:11:00.555Z,74.10
2018-04-18T03:13:28.088Z,74.10
2018-04-18T03:15:55.645Z,73.90
2018-04-18T03:18:23.167Z,74.00
2018-04-18T03:20:50.724Z,74.00
2018-04-18T03:23:18.281Z,73.90
2018-04-18T03:25:45.801Z,73.80
2018-04-18T03:28:13.359Z,73.80
2018-04-18T03:30:40.880Z,74.00
2018-04-18T03:33:09.208Z,74.30
2018-04-18T03:35:36.730Z,74.20
2018-04-18T03:38:05.052Z,74.40
2018-04-18T03:40:32.572Z,74.20
2018-04-18T03:43:00.892Z,74.40
2018-04-18T03:45:28.416Z,74.30
2018-04-18T03:47:55.967Z,74.50
2018-04-18T03:50:24.278Z,74.50
2018-04-18T03:52:52.143Z,74.40
2018-04-18T03:55:19.665Z,75.10
2018-04-18T03:57:47.984Z,74.40
2018-04-18T04:00:15.509Z,74.40
2018-04-18T04:02:43.828Z,75.30
2018-04-18T04:05:11.356Z,75.30
2018-04-18T04:07:39.677Z,75.50
2018-04-18T04:10:07.200Z,75.50
2018-04-18T04:12:34.760Z,75.90
2018-04-18T04:15:02.284Z,76.20
2018-04-18T04:17:41.730Z,76.30
2018-04-18T04:20:20.989Z,76.40
2018-04-18T04:23:01.204Z,77.50
2018-04-18T04:25:28.729Z,77.50
2018-04-18T04:27:56.281Z,77.90
2018-04-18T04:30:23.804Z,78.10
2018-04-18T04:32:52.129Z,78.80
2018-04-18T04:35:19.663Z,78.70
2018-04-18T04:37:47.953Z,78.30
2018-04-18T04:40:15.509Z,78.30
2018-04-18T04:42:43.031Z,78.20
2018-04-18T04:45:10.593Z,78.30
2018-04-18T04:47:38.119Z,78.30
2018-04-18T04:50:05.673Z,78.20
2018-04-18T04:52:33.206Z,78.00
2018-04-18T04:55:00.760Z,78.20
2018-04-18T04:57:28.291Z,78.10
2018-04-18T04:59:55.849Z,77.60
2018-04-18T05:02:23.373Z,77.20
2018-04-18T05:04:50.933Z,77.00
2018-04-18T05:07:18.457Z,76.60
2018-04-18T05:09:46.781Z,76.70
2018-04-18T05:12:14.307Z,76.70
2018-04-18T05:14:41.869Z,76.80
2018-04-18T05:17:09.531Z,76.90
2018-04-18T05:19:37.730Z,76.80
2018-04-18T05:22:05.395Z,76.90
2018-04-18T05:24:33.005Z,77.50
2018-04-18T05:27:00.517Z,77.50
2018-04-18T05:29:28.045Z,77.50
2018-04-18T05:31:55.604Z,77.50
2018-04-18T05:34:23.139Z,77.20
2018-04-18T05:36:50.695Z,77.10
2018-04-18T05:39:18.216Z,78.80
2018-04-18T05:41:45.779Z,77.70
2018-04-18T05:44:13.300Z,77.80
2018-04-18T05:46:41.620Z,78.40
2018-04-18T05:49:09.149Z,78.40
2018-04-18T05:51:36.700Z,78.60
2018-04-18T05:54:04.983Z,78.20
2018-04-18T05:56:32.532Z,78.20
2018-04-18T05:59:00.821Z,78.10
2018-04-18T06:01:28.376Z,78.10
2018-04-18T06:03:56.663Z,77.20
2018-04-18T06:06:24.220Z,77.10
2018-04-18T06:08:51.754Z,77.00
2018-04-18T06:11:20.091Z,77.10
2018-04-18T06:13:47.616Z,77.00
2018-04-18T06:16:15.172Z,77.10
2018-04-18T06:18:42.738Z,77.40
2018-04-18T06:21:10.269Z,77.60
2018-04-18T06:23:37.828Z,77.40
2018-04-18T06:26:05.352Z,77.40
2018-04-18T06:28:32.905Z,77.30
2018-04-18T06:31:00.434Z,76.90
2018-04-18T06:33:27.992Z,76.50
2018-04-18T06:35:56.284Z,76.30
2018-04-18T06:38:23.841Z,76.20
2018-04-18T06:40:51.372Z,76.10
2018-04-18T06:43:19.700Z,75.50
2018-04-18T06:45:47.237Z,75.50
2018-04-18T06:48:14.791Z,75.60
2018-04-18T06:50:43.088Z,75.30
2018-04-18T06:53:10.647Z,75.20
2018-04-18T06:55:38.178Z,74.70
2018-04-18T06:58:06.535Z,74.50
2018-04-18T07:00:34.069Z,74.50
2018-04-18T07:03:01.629Z,74.00
2018-04-18T07:05:29.169Z,73.90
2018-04-18T07:07:56.735Z,73.80
2018-04-18T07:10:24.260Z,73.10
2018-04-18T07:12:53.196Z,72.70
2018-04-18T07:15:20.719Z,72.60
2018-04-18T07:17:49.038Z,72.60
2018-04-18T07:20:16.572Z,72.50
2018-04-18T07:22:44.101Z,72.10
2018-04-18T07:25:11.668Z,72.60
2018-04-18T07:27:40.435Z,71.70
2018-04-18T07:30:07.961Z,71.70
2018-04-18T07:32:35.756Z,72.00
2018-04-18T07:35:03.975Z,71.30
2018-04-18T07:37:31.640Z,71.10
2018-04-18T07:39:59.198Z,71.60
2018-04-18T07:42:27.489Z,70.70
2018-04-18T07:44:55.040Z,70.70
2018-04-18T07:47:22.571Z,70.50
2018-04-18T07:49:50.123Z,70.20
2018-04-18T07:52:17.653Z,69.70
2018-04-18T07:54:45.981Z,68.80
2018-04-18T07:57:14.281Z,68.30
2018-04-18T07:59:41.848Z,68.20
2018-04-18T08:02:09.374Z,67.80
2018-04-18T08:04:37.697Z,67.50
2018-04-18T08:07:05.225Z,67.50
2018-04-18T08:09:33.556Z,65.90
2018-04-18T08:12:01.092Z,65.80
2018-04-18T08:14:28.648Z,65.50
2018-04-18T08:16:56.181Z,65.10
2018-04-18T08:19:24.506Z,64.30
2018-04-18T08:21:52.032Z,64.30
2018-04-18T08:24:20.352Z,64.00
2018-04-18T08:26:48.452Z,64.00
2018-04-18T08:29:16.937Z,62.80
2018-04-18T08:31:44.496Z,62.80
2018-04-18T08:34:12.020Z,63.40
2018-04-18T08:36:39.572Z,62.50
2018-04-18T08:39:07.100Z,62.00
2018-04-18T08:41:35.424Z,61.40
2018-04-18T08:44:02.952Z,61.40
2018-04-18T08:46:30.513Z,59.80
2018-04-18T08:48:58.130Z,59.90
2018-04-18T08:51:25.659Z,59.50
2018-04-18T08:53:53.216Z,59.10
2018-04-18T08:56:20.764Z,59.40
2018-04-18T08:58:48.284Z,58.90
2018-04-18T09:01:16.673Z,58.90
2018-04-18T09:03:44.965Z,58.50
2018-04-18T09:06:13.280Z,58.60
2018-04-18T09:08:40.802Z,58.50
2018-04-18T09:11:08.348Z,58.80
2018-04-18T09:13:36.636Z,58.10
2018-04-18T09:16:04.193Z,58.10
2018-04-18T09:18:32.486Z,57.10
2018-04-18T09:21:00.045Z,57.10
2018-04-18T09:23:27.572Z,56.80
2018-04-18T09:25:55.897Z,56.90
2018-04-18T09:28:23.432Z,56.80
2018-04-18T09:30:51.755Z,56.50
2018-04-18T09:33:19.299Z,56.50
2018-04-18T09:35:46.824Z,56.10
2018-04-18T09:38:14.428Z,55.40
2018-04-18T09:40:41.956Z,54.70
2018-04-18T09:43:09.515Z,54.90
2018-04-18T09:45:37.049Z,55.10
2018-04-18T09:48:05.372Z,54.80
2018-04-18T09:50:32.901Z,54.10
2018-04-18T09:53:01.220Z,53.40
2018-04-18T09:55:28.748Z,53.30
2018-04-18T09:57:56.324Z,53.10
2018-04-18T10:00:29.600Z,52.00
2018-04-18T10:03:03.492Z,50.90
2018-04-18T10:05:31.796Z,50.90
2018-04-18T10:07:59.357Z,50.80
2018-04-18T10:10:26.890Z,51.10
2018-04-18T10:12:55.210Z,51.40
2018-04-18T10:15:22.732Z,51.30
2018-04-18T10:17:51.057Z,49.90
2018-04-18T10:20:18.580Z,49.80
2018-04-18T10:22:46.913Z,49.40
2018-04-18T10:25:14.450Z,49.40
2018-04-18T10:27:42.006Z,50.00
2018-04-18T10:30:09.532Z,49.80
2018-04-18T10:32:37.091Z,49.50
2018-04-18T10:35:05.385Z,48.80
2018-04-18T10:37:32.921Z,48.80
2018-04-18T10:40:01.245Z,47.80
2018-04-18T10:42:28.772Z,47.80
2018-04-18T10:44:57.097Z,47.10
2018-04-18T10:47:24.628Z,47.10
2018-04-18T10:49:52.188Z,47.30
2018-04-18T10:52:19.778Z,47.20
2018-04-18T10:54:47.341Z,46.70
2018-04-18T10:57:15.639Z,46.20
2018-04-18T10:59:46.933Z,46.20
2018-04-18T11:02:14.472Z,45.80
2018-04-18T11:04:42.034Z,45.20
2018-04-18T11:07:09.561Z,45.70
2018-04-18T11:09:37.130Z,45.50
2018-04-18T11:12:04.670Z,45.30
2018-04-18T11:14:32.235Z,44.90
2018-04-18T11:16:59.770Z,44.50
2018-04-18T11:19:27.335Z,43.90
2018-04-18T11:21:54.877Z,44.00
2018-04-18T11:24:22.440Z,44.00
2018-04-18T11:26:50.042Z,43.30
2018-04-18T11:29:17.594Z,43.30
2018-04-18T11:31:45.141Z,42.80
2018-04-18T11:34:12.705Z,42.70
2018-04-18T11:36:40.234Z,42.60
2018-04-18T11:39:07.790Z,42.30
2018-04-18T11:41:36.081Z,41.90
2018-04-18T11:44:03.649Z,41.80
2018-04-18T11:46:31.188Z,41.90
2018-04-18T11:48:59.509Z,41.50
2018-04-18T11:51:27.033Z,42.20
2018-04-18T11:53:54.592Z,41.00
2018-04-18T11:56:22.123Z,40.90
2018-04-18T11:58:49.704Z,40.90
2018-04-18T12:01:18.001Z,40.10
2018-04-18T12:03:45.549Z,40.10
2018-04-18T12:06:13.093Z,40.10
2018-04-18T12:08:41.379Z,39.50
2018-04-18T12:11:09.692Z,39.20
2018-04-18T12:13:37.213Z,39.20
2018-04-18T12:16:05.535Z,38.80
2018-04-18T12:18:33.065Z,38.80
2018-04-18T12:21:00.620Z,38.70
2018-04-18T12:23:28.908Z,38.60
2018-04-18T12:25:56.461Z,38.60
2018-04-18T12:28:23.988Z,37.60
2018-04-18T12:30:51.544Z,37.80
2018-04-18T12:33:19.164Z,37.40
2018-04-18T12:35:46.722Z,37.40
2018-04-18T12:38:14.247Z,37.20
2018-04-18T12:40:42.566Z,37.20
2018-04-18T12:43:10.092Z,37.10
2018-04-18T12:45:37.671Z,37.20
2018-04-18T12:48:05.191Z,36.70
2018-04-18T12:50:32.744Z,36.70
2018-04-18T12:53:00.264Z,36.90
2018-04-18T12:55:27.824Z,36.70
2018-04-18T12:57:55.344Z,36.20
2018-04-18T13:00:22.908Z,36.10
2018-04-18T13:02:50.508Z,36.00
2018-04-18T13:05:18.064Z,35.60
2018-04-18T13:07:45.600Z,35.40
2018-04-18T13:10:13.156Z,35.00
2018-04-18T13:12:41.452Z,35.40
2018-04-18T13:15:09.012Z,35.40
2018-04-18T13:17:36.543Z,34.50
2018-04-18T13:20:04.863Z,34.70
2018-04-18T13:22:32.389Z,34.80
2018-04-18T13:25:00.713Z,34.60
2018-04-18T13:27:28.236Z,34.70
2018-04-18T13:29:55.813Z,34.70
2018-04-18T13:32:23.341Z,34.20
2018-04-18T13:34:51.660Z,34.20
2018-04-18T13:37:19.212Z,34.20
2018-04-18T13:39:46.751Z,33.80
2018-04-18T13:42:15.073Z,33.40
2018-04-18T13:44:42.609Z,33.50
2018-04-18T13:47:10.171Z,33.30
2018-04-18T13:49:37.696Z,33.20
2018-04-18T13:52:06.027Z,32.80
2018-04-18T13:54:33.558Z,32.90
2018-04-18T13:57:01.108Z,32.30
2018-04-18T13:59:29.404Z,32.80
2018-04-18T14:01:56.965Z,32.70
2018-04-18T14:04:24.502Z,32.70
2018-04-18T14:06:52.820Z,32.80
2018-04-18T14:09:20.348Z,32.70
2018-04-18T14:11:48.737Z,32.20
2018-04-18T14:14:16.273Z,32.10
2018-04-18T14:16:44.600Z,32.00
2018-04-18T14:19:12.128Z,32.00
2018-04-18T14:21:39.685Z,31.80
2018-04-18T14:24:07.979Z,31.00
2018-04-18T14:26:35.549Z,31.00
2018-04-18T14:29:03.092Z,30.80
2018-04-18T14:31:30.653Z,30.70
2018-04-18T14:33:58.183Z,30.80
2018-04-18T14:36:25.780Z,30.60
2018-04-18T14:38:53.310Z,30.80
2018-04-18T14:41:21.624Z,30.60
2018-04-18T14:43:49.147Z,30.50
2018-04-18T14:46:17.471Z,30.90
2018-04-18T14:48:44.996Z,30.20
2018-04-18T14:51:13.326Z,30.40
2018-04-18T14:53:41.089Z,30.40
2018-04-18T14:56:08.656Z,30.30
2018-04-18T14:58:36.953Z,29.70
2018-04-18T15:01:04.505Z,29.70
2018-04-18T15:03:32.036Z,29.50
2018-04-18T15:05:59.593Z,29.50
2018-04-18T15:08:27.141Z,29.20
2018-04-18T15:10:54.704Z,29.20
2018-04-18T15:13:22.246Z,29.00
2018-04-18T15:15:50.548Z,28.90
2018-04-18T15:18:18.105Z,28.80
2018-04-18T15:20:45.632Z,28.80
2018-04-18T15:23:13.956Z,28.40
2018-04-18T15:25:41.488Z,28.40
2018-04-18T15:28:09.041Z,28.20
2018-04-18T15:30:37.337Z,28.10
2018-04-18T15:33:04.887Z,28.10
2018-04-18T15:35:32.448Z,28.20
2018-04-18T15:38:00.773Z,28.10
2018-04-18T15:40:28.308Z,28.10
2018-04-18T15:42:55.872Z,28.00
2018-04-18T15:45:23.424Z,28.20
2018-04-18T15:47:50.984Z,28.30
2018-04-18T15:50:18.521Z,28.10
2018-04-18T15:52:46.841Z,27.90
2018-04-18T15:55:14.372Z,27.80
2018-04-18T15:57:41.928Z,27.70
2018-04-18T16:00:10.294Z,27.70
2018-04-18T16:02:38.622Z,27.70
2018-04-18T16:05:06.150Z,27.70
2018-04-18T16:07:33.804Z,27.90
2018-04-18T16:10:01.292Z,27.70
2018-04-18T16:12:28.845Z,27.70
2018-04-18T16:14:56.373Z,27.50
2018-04-18T16:17:24.692Z,27.70
2018-04-18T16:19:52.227Z,27.70
2018-04-18T16:22:19.793Z,27.80
2018-04-18T16:24:47.338Z,27.70
2018-04-18T16:27:15.665Z,27.90
2018-04-18T16:29:43.200Z,27.90
2018-04-18T16:32:10.759Z,27.90
2018-04-18T16:34:38.307Z,28.50
2018-04-18T16:37:05.831Z,28.10
2018-04-18T16:39:33.395Z,28.40
2018-04-18T16:42:00.919Z,28.60
2018-04-18T16:44:28.473Z,28.90
2018-04-18T16:46:56.012Z,29.20
2018-04-18T16:49:23.592Z,29.50
2018-04-18T16:51:51.117Z,30.00
2018-04-18T16:54:19.451Z,30.60
2018-04-18T16:56:46.989Z,30.60
2018-04-18T16:59:14.544Z,31.00
2018-04-18T17:01:42.133Z,31.10
2018-04-18T17:04:09.688Z,31.60
2018-04-18T17:06:37.233Z,31.80
2018-04-18T17:09:04.833Z,32.00
2018-04-18T17:11:32.375Z,32.40
2018-04-18T17:13:59.944Z,32.50
2018-04-18T17:16:27.477Z,33.00
2018-04-18T17:18:55.012Z,33.50
2018-04-18T17:21:22.586Z,33.80
2018-04-18T17:23:50.127Z,34.10
2018-04-18T17:26:17.697Z,34.50
2018-04-18T17:28:45.231Z,34.90
2018-04-18T17:31:13.556Z,35.40
2018-04-18T17:33:41.093Z,35.40
2018-04-18T17:36:08.656Z,35.80
2018-04-18T17:38:36.184Z,36.00
2018-04-18T17:41:03.744Z,36.30
2018-04-18T17:43:32.059Z,36.90
2018-04-18T17:45:59.619Z,36.80
2018-04-18T17:48:27.157Z,37.20
2018-04-18T17:50:55.481Z,37.80
2018-04-18T17:53:24.996Z,37.70
2018-04-18T17:55:52.576Z,38.00
2018-04-18T17:58:20.110Z,38.40
2018-04-18T18:00:47.672Z,38.70
2018-04-18T18:03:15.214Z,38.90
2018-04-18T18:05:42.745Z,39.30
2018-04-18T18:08:10.309Z,39.80
2018-04-18T18:10:37.848Z,40.20
2018-04-18T18:13:05.412Z,40.40
2018-04-18T18:15:32.952Z,40.70
2018-04-18T18:18:00.522Z,40.90
2018-04-18T18:20:28.061Z,41.40
2018-04-18T18:22:55.637Z,41.70
2018-04-18T18:25:23.180Z,42.20
2018-04-18T18:27:50.757Z,42.60
2018-04-18T18:30:18.293Z,42.90
2018-04-18T18:32:45.853Z,43.60
2018-04-18T18:35:13.389Z,43.90
2018-04-18T18:37:40.955Z,44.40
2018-04-18T18:40:08.491Z,44.70
2018-04-18T18:42:36.816Z,45.50
2018-04-18T18:45:04.344Z,45.50
2018-04-18T18:47:31.881Z,45.80
2018-04-18T18:50:00.211Z,46.40
2018-04-18T18:52:27.736Z,46.30
2018-04-18T18:54:56.060Z,46.70
2018-04-18T18:57:23.592Z,46.60
2018-04-18T18:59:51.171Z,47.30
2018-04-18T19:02:18.736Z,47.80
2018-04-18T19:04:46.289Z,48.10
2018-04-18T19:07:13.816Z,48.60
2018-04-18T19:09:42.144Z,49.10
2018-04-18T19:12:09.672Z,49.10
2018-04-18T19:14:37.271Z,49.50
2018-04-18T19:17:04.804Z,49.60
2018-04-18T19:19:32.368Z,49.90
2018-04-18T19:21:59.899Z,50.10
2018-04-18T19:24:28.225Z,50.80
2018-04-18T19:26:56.589Z,50.70
2018-04-18T19:29:24.148Z,51.00
2018-04-18T19:31:51.681Z,51.30
2018-04-18T19:34:19.240Z,51.60
2018-04-18T19:36:47.538Z,52.10
2018-04-18T19:39:15.088Z,52.00
2018-04-18T19:41:42.633Z,52.40
2018-04-18T19:44:10.956Z,52.70
2018-04-18T19:46:38.488Z,53.20
2018-04-18T19:49:06.061Z,52.90
2018-04-18T19:51:33.601Z,53.20
2018-04-18T19:54:01.152Z,53.50
2018-04-18T19:56:29.474Z,54.00
2018-04-18T19:58:57.005Z,53.90
2018-04-18T20:01:24.562Z,54.20
2018-04-18T20:03:52.092Z,54.20
2018-04-18T20:06:19.644Z,54.30
2018-04-18T20:08:47.168Z,54.20
2018-04-18T20:11:14.724Z,54.40
2018-04-18T20:13:42.253Z,54.20
2018-04-18T20:16:10.581Z,54.40
2018-04-18T20:18:38.106Z,54.30
2018-04-18T20:21:05.665Z,54.40
2018-04-18T20:23:33.202Z,54.60
2018-04-18T20:26:01.517Z,54.90
2018-04-18T20:28:29.062Z,54.80
2018-04-18T20:30:56.612Z,55.10
2018-04-18T20:33:24.151Z,55.10
2018-04-18T20:35:52.485Z,55.40
2018-04-18T20:38:20.017Z,55.40
2018-04-18T20:40:47.581Z,55.60
2018-04-18T20:43:15.110Z,55.60
2018-04-18T20:45:43.437Z,55.90
2018-04-18T20:48:10.958Z,55.90
2018-04-18T20:50:39.275Z,56.00
2018-04-18T20:53:07.543Z,56.00
2018-04-18T20:55:35.232Z,56.00
2018-04-18T20:58:02.771Z,56.00
2018-04-18T21:00:30.330Z,56.10
2018-04-18T21:02:57.864Z,56.00
2018-04-18T21:05:26.192Z,55.90
2018-04-18T21:07:53.731Z,55.80
2018-04-18T21:10:21.267Z,55.90
2018-04-18T21:12:48.821Z,55.70
2018-04-18T21:15:17.121Z,56.20
2018-04-18T21:17:44.672Z,56.10
2018-04-18T21:20:12.204Z,56.30
2018-04-18T21:22:40.531Z,56.70
2018-04-18T21:25:08.066Z,56.70
2018-04-18T21:27:35.636Z,56.70
2018-04-18T21:30:03.173Z,56.70
2018-04-18T21:32:31.497Z,56.60
2018-04-18T21:34:59.020Z,56.50
2018-04-18T21:37:27.346Z,57.00
2018-04-18T21:39:54.878Z,57.00
2018-04-18T21:42:22.449Z,57.20
2018-04-18T21:44:49.969Z,56.90
2018-04-18T21:47:18.287Z,57.40
2018-04-18T21:49:45.817Z,57.40
2018-04-18T21:52:13.376Z,57.50
2018-04-18T21:54:40.907Z,57.70
2018-04-18T21:57:08.460Z,57.70
2018-04-18T21:59:35.981Z,58.00
2018-04-18T22:02:03.532Z,58.10
2018-04-18T22:04:31.068Z,58.30
2018-04-18T22:06:59.397Z,58.40
2018-04-18T22:09:26.918Z,58.40
2018-04-18T22:11:54.517Z,58.60
2018-04-18T22:14:22.044Z,58.60
2018-04-18T22:16:49.681Z,58.70
2018-04-18T22:19:17.140Z,58.60
2018-04-18T22:21:45.472Z,59.20
2018-04-18T22:24:13.005Z,59.10
2018-04-18T22:26:40.560Z,59.30
2018-04-18T22:29:08.089Z,59.40
2018-04-18T22:31:35.616Z,59.60
2018-04-18T22:34:03.163Z,59.70
2018-04-18T22:36:30.710Z,60.00
2018-04-18T22:38:58.267Z,60.20
2018-04-18T22:41:25.792Z,60.40
2018-04-18T22:43:53.344Z,60.60
2018-04-18T22:46:20.868Z,60.60
2018-04-18T22:48:48.420Z,60.60
2018-04-18T22:51:15.944Z,60.20
2018-04-18T22:53:44.264Z,60.20
2018-04-18T22:56:11.793Z,60.10
2018-04-18T22:58:39.344Z,60.70
2018-04-18T23:01:07.636Z,61.20
2018-04-18T23:03:35.189Z,61.10
2018-04-18T23:06:02.721Z,61.50
2018-04-18T23:08:30.287Z,61.60
2018-04-18T23:10:57.812Z,61.90
2018-04-18T23:13:25.372Z,61.90
2018-04-18T23:15:52.896Z,61.90
2018-04-18T23:18:20.497Z,62.20
2018-04-18T23:20:48.020Z,62.20
2018-04-18T23:23:15.580Z,62.50
2018-04-18T23:25:43.109Z,62.70
2018-04-18T23:28:10.668Z,62.90
2018-04-18T23:30:38.192Z,63.20
2018-04-18T23:33:05.768Z,63.70
2018-04-18T23:35:33.293Z,63.00
2018-04-18T23:38:00.823Z,62.90
2018-04-18T23:40:29.139Z,63.30
2018-04-18T23:42:56.667Z,63.20
2018-04-18T23:45:24.983Z,63.40
2018-04-18T23:47:52.505Z,63.30
2018-04-18T23:50:20.824Z,63.50
2018-04-18T23:52:48.344Z,63.40
2018-04-18T23:55:16.669Z,64.40
2018-04-18T23:57:44.193Z,64.30
